Francisco Camaco — CULX2 — position and weather

sailwx.info

Track history (hours):
 
Tides and Currents Weather Stations Pressure Air Temp Water Temp Dewpoint Dewpoint Depression Visibility Wind Speed Wind Dir Waves Ship Positions

Francisco Camaco

Last reported at 2017-Nov-19 22:27 UTC. Time now 2017-Nov-23 22:19 UTC.
Position N 38°26' W 009°07'.

Length 23 m.

Type: Fishing. MMSI: 263431350.

Date/timePositionNaut miles runAvg speedWind from/ knotsBaromVisibWave heightAir tempDewpointWater temp
2017-Nov-19 22:27N 38°26' W 009°07'0 0.0
2017-Nov-19 22:00N 38°26' W 009°07'  
2017-Nov-16 18:19N 38°26' W 009°07'0 0.0
2017-Nov-16 18:00N 38°26' W 009°07'0 0.0
2017-Nov-16 17:31N 38°26' W 009°07'0 0.0
2017-Nov-16 17:00N 38°26' W 009°07'0 0.0
2017-Nov-16 16:30N 38°26' W 009°07'0 0.0
2017-Nov-16 16:00N 38°26' W 009°07'0 0.0
2017-Nov-16 15:30N 38°26' W 009°07'0 0.0
2017-Nov-16 15:01N 38°26' W 009°07'1 2.6
2017-Nov-16 14:30N 38°26' W 009°05'5 9.8
2017-Nov-16 14:00N 38°24' W 008°59'7 9.7
2017-Nov-16 13:15N 38°21' W 008°51'0 0.1
2017-Nov-16 13:00N 38°21' W 008°51'0 0.0
2017-Nov-16 12:31N 38°21' W 008°51'0 0.0
2017-Nov-16 12:00N 38°21' W 008°51'0 0.1
2017-Nov-16 11:30N 38°21' W 008°51'0 0.3
2017-Nov-16 11:00N 38°21' W 008°51'0 0.0
2017-Nov-16 10:29N 38°21' W 008°51'0 0.0
2017-Nov-16 10:00N 38°21' W 008°51'0 0.1
2017-Nov-16 09:30N 38°21' W 008°51'0 0.0
2017-Nov-16 09:00N 38°21' W 008°51'0 0.0
2017-Nov-16 08:25N 38°21' W 008°51'0 0.6
2017-Nov-16 08:00N 38°21' W 008°51'2 4.5
2017-Nov-16 07:30N 38°19' W 008°51'1 1.1
2017-Nov-16 07:00N 38°18' W 008°51'1 1.1
2017-Nov-16 06:30N 38°19' W 008°51'0 0.5
2017-Nov-16 06:00N 38°19' W 008°51'3 6.5
2017-Nov-16 05:30N 38°21' W 008°53'0 0.0
2017-Nov-16 05:00N 38°21' W 008°53'0 0.0
2017-Nov-16 04:30N 38°21' W 008°53'0 0.0
2017-Nov-16 04:00N 38°21' W 008°53'0 0.0
2017-Nov-16 03:30N 38°21' W 008°53'0 0.0
2017-Nov-16 03:01N 38°21' W 008°53'0 0.0
2017-Nov-16 02:30N 38°21' W 008°53'0 0.0
2017-Nov-16 02:01N 38°21' W 008°53'0 0.1
2017-Nov-16 01:31N 38°21' W 008°53'0 0.1
2017-Nov-16 01:00N 38°21' W 008°53'2 3.0
2017-Nov-16 00:29N 38°21' W 008°51'3 5.9
2017-Nov-16 00:01N 38°19' W 008°51'2 4.9
2017-Nov-15 23:31N 38°20' W 008°54'5 9.2
2017-Nov-15 23:00N 38°22' W 008°59'5 9.3
2017-Nov-15 22:31N 38°25' W 009°04'3 0.4
2017-Nov-15 15:17N 38°26' W 009°07'0 0.0
2017-Nov-15 15:00N 38°26' W 009°07'0 0.0
2017-Nov-15 14:30N 38°26' W 009°07'0 0.0
2017-Nov-15 14:00N 38°26' W 009°07'0 0.0
2017-Nov-15 13:30N 38°26' W 009°07'0 0.0
2017-Nov-15 13:00N 38°26' W 009°07'0 0.0
2017-Nov-15 12:30N 38°26' W 009°07'0 0.0
2017-Nov-15 12:00N 38°26' W 009°07'0 0.0
2017-Nov-15 11:30N 38°26' W 009°07'3 6.0
2017-Nov-15 11:00N 38°25' W 009°03'6 9.6
2017-Nov-15 10:22N 38°21' W 008°57'4 9.6
2017-Nov-15 09:54N 38°19' W 008°53'1 1.9
2017-Nov-15 09:30N 38°18' W 008°52'0 0.4
2017-Nov-15 09:00N 38°18' W 008°52'0 0.4
2017-Nov-15 08:30N 38°18' W 008°51'0 0.1
2017-Nov-15 08:00N 38°18' W 008°51'0 0.1
2017-Nov-15 07:30N 38°18' W 008°51'0 0.2
2017-Nov-15 06:59N 38°18' W 008°51'2 1.7
2017-Nov-15 05:56N 38°20' W 008°51'0 0.3
2017-Nov-15 05:30N 38°20' W 008°51'2 4.8
2017-Nov-15 05:01N 38°21' W 008°53'0 0.0
2017-Nov-15 04:26N 38°21' W 008°53'0 0.0
2017-Nov-15 04:00N 38°21' W 008°53'0 0.0
2017-Nov-15 03:30N 38°21' W 008°53'0 0.0
2017-Nov-15 03:01N 38°21' W 008°53'0 0.1
2017-Nov-15 02:31N 38°21' W 008°53'2 4.3
2017-Nov-15 01:58N 38°20' W 008°51'2 3.7
2017-Nov-15 01:30N 38°19' W 008°51'2 4.4
2017-Nov-15 01:00N 38°19' W 008°53'5 9.3
2017-Nov-15 00:30N 38°22' W 008°58'5 9.2
2017-Nov-15 00:01N 38°24' W 009°03'4 7.3
2017-Nov-14 23:31N 38°26' W 009°07'0 0.0
2017-Nov-14 23:01N 38°26' W 009°07'0 0.0
2017-Nov-14 12:35N 38°26' W 009°07'0 0.0
2017-Nov-14 12:30N 38°26' W 009°07'0 0.1
2017-Nov-14 12:00N 38°26' W 009°07'0 0.0
2017-Nov-14 11:30N 38°26' W 009°07'3 5.6
2017-Nov-14 11:00N 38°26' W 009°03'5 9.4
2017-Nov-14 10:27N 38°24' W 008°57'4 8.1
2017-Nov-14 09:58N 38°22' W 008°52'0 0.5
2017-Nov-14 09:30N 38°23' W 008°52'0 0.4
2017-Nov-14 09:00N 38°23' W 008°52'0 0.2
2017-Nov-14 08:30N 38°23' W 008°52'0 0.1
2017-Nov-14 07:47N 38°23' W 008°52'0 0.4
2017-Nov-14 07:30N 38°23' W 008°52'3 4.3
2017-Nov-14 06:47N 38°20' W 008°50'2 6.5
2017-Nov-14 06:30N 38°22' W 008°51'1 1.2
2017-Nov-14 05:55N 38°22' W 008°52'0 0.3
2017-Nov-14 05:30N 38°22' W 008°52'1 2.3
2017-Nov-14 05:00N 38°21' W 008°53'0 0.1
2017-Nov-14 04:30N 38°21' W 008°53'0 0.1
2017-Nov-14 04:00N 38°21' W 008°53'0 0.1
2017-Nov-14 03:30N 38°21' W 008°53'0 0.1
2017-Nov-14 03:00N 38°21' W 008°53'0 0.1
2017-Nov-14 02:30N 38°21' W 008°53'0 0.1
2017-Nov-14 02:00N 38°22' W 008°53'0 0.2
2017-Nov-14 01:30N 38°22' W 008°53'0 0.0
2017-Nov-14 01:00N 38°22' W 008°53'0 0.4
2017-Nov-14 00:30N 38°22' W 008°53'4 6.5
2017-Nov-13 23:51N 38°18' W 008°50'5 7.1
2017-Nov-13 23:05N 38°21' W 008°56'1 9.2
2017-Nov-13 22:59N 38°21' W 008°57'4 9.0
2017-Nov-13 22:30N 38°24' W 009°02'5 9.3
2017-Nov-13 22:00N 38°26' W 009°06'1 0.1
2017-Nov-13 02:00N 38°25' W 009°05'1 3.0
2017-Nov-13 01:30N 38°26' W 009°07'0 0.0
2017-Nov-13 01:00N 38°26' W 009°07'0 0.0
2017-Nov-13 00:30N 38°26' W 009°07'0 0.0
2017-Nov-13 00:00N 38°26' W 009°07'0 0.0
2017-Nov-12 23:30N 38°26' W 009°07'0 0.0
2017-Nov-12 23:00N 38°26' W 009°07'0 0.0
2017-Nov-12 22:30N 38°26' W 009°07'0 0.0
2017-Nov-12 22:00N 38°26' W 009°07'0 0.0
2017-Nov-11 17:29N 38°26' W 009°07'0 0.0
2017-Nov-11 15:43N 38°26' W 009°07'0 0.0
2017-Nov-11 12:08N 38°26' W 009°07'0 0.0
2017-Nov-11 12:00N 38°26' W 009°07'0 0.0
2017-Nov-11 11:30N 38°26' W 009°07'0 0.0
2017-Nov-11 11:00N 38°26' W 009°07'0 0.2
2017-Nov-11 10:30N 38°26' W 009°07'0 0.0
2017-Nov-10 00:00N 38°26' W 009°07'0 0.3
2017-Nov-09 23:31N 38°26' W 009°07'0 0.0
2017-Nov-09 23:00N 38°26' W 009°07'0 0.0
2017-Nov-09 22:30N 38°26' W 009°07'  
Track history (hours):
 
Tides and Currents Weather Stations Pressure Air Temp Water Temp Dewpoint Dewpoint Depression Visibility Wind Speed Wind Dir Waves Ship Positions

Francisco Camaco

Last reported at 2017-Nov-19 22:27 UTC. Time now 2017-Nov-23 22:19 UTC.
Position N 38°26' W 009°07'.

Length 23 m.

Type: Fishing. MMSI: 263431350.

Date/timePositionNaut miles runAvg speedWind from/ knotsBaromVisibWave heightAir tempDewpointWater temp
2017-Nov-19 22:27N 38°26' W 009°07'0 0.0
2017-Nov-19 22:00N 38°26' W 009°07'  
2017-Nov-16 18:19N 38°26' W 009°07'0 0.0
2017-Nov-16 18:00N 38°26' W 009°07'0 0.0
2017-Nov-16 17:31N 38°26' W 009°07'0 0.0
2017-Nov-16 17:00N 38°26' W 009°07'0 0.0
2017-Nov-16 16:30N 38°26' W 009°07'0 0.0
2017-Nov-16 16:00N 38°26' W 009°07'0 0.0
2017-Nov-16 15:30N 38°26' W 009°07'0 0.0
2017-Nov-16 15:01N 38°26' W 009°07'1 2.6
2017-Nov-16 14:30N 38°26' W 009°05'5 9.8
2017-Nov-16 14:00N 38°24' W 008°59'7 9.7
2017-Nov-16 13:15N 38°21' W 008°51'0 0.1
2017-Nov-16 13:00N 38°21' W 008°51'0 0.0
2017-Nov-16 12:31N 38°21' W 008°51'0 0.0
2017-Nov-16 12:00N 38°21' W 008°51'0 0.1
2017-Nov-16 11:30N 38°21' W 008°51'0 0.3
2017-Nov-16 11:00N 38°21' W 008°51'0 0.0
2017-Nov-16 10:29N 38°21' W 008°51'0 0.0
2017-Nov-16 10:00N 38°21' W 008°51'0 0.1
2017-Nov-16 09:30N 38°21' W 008°51'0 0.0
2017-Nov-16 09:00N 38°21' W 008°51'0 0.0
2017-Nov-16 08:25N 38°21' W 008°51'0 0.6
2017-Nov-16 08:00N 38°21' W 008°51'2 4.5
2017-Nov-16 07:30N 38°19' W 008°51'1 1.1
2017-Nov-16 07:00N 38°18' W 008°51'1 1.1
2017-Nov-16 06:30N 38°19' W 008°51'0 0.5
2017-Nov-16 06:00N 38°19' W 008°51'3 6.5
2017-Nov-16 05:30N 38°21' W 008°53'0 0.0
2017-Nov-16 05:00N 38°21' W 008°53'0 0.0
2017-Nov-16 04:30N 38°21' W 008°53'0 0.0
2017-Nov-16 04:00N 38°21' W 008°53'0 0.0
2017-Nov-16 03:30N 38°21' W 008°53'0 0.0
2017-Nov-16 03:01N 38°21' W 008°53'0 0.0
2017-Nov-16 02:30N 38°21' W 008°53'0 0.0
2017-Nov-16 02:01N 38°21' W 008°53'0 0.1
2017-Nov-16 01:31N 38°21' W 008°53'0 0.1
2017-Nov-16 01:00N 38°21' W 008°53'2 3.0
2017-Nov-16 00:29N 38°21' W 008°51'3 5.9
2017-Nov-16 00:01N 38°19' W 008°51'2 4.9
2017-Nov-15 23:31N 38°20' W 008°54'5 9.2
2017-Nov-15 23:00N 38°22' W 008°59'5 9.3
2017-Nov-15 22:31N 38°25' W 009°04'3 0.4
2017-Nov-15 15:17N 38°26' W 009°07'0 0.0
2017-Nov-15 15:00N 38°26' W 009°07'0 0.0
2017-Nov-15 14:30N 38°26' W 009°07'0 0.0
2017-Nov-15 14:00N 38°26' W 009°07'0 0.0
2017-Nov-15 13:30N 38°26' W 009°07'0 0.0
2017-Nov-15 13:00N 38°26' W 009°07'0 0.0
2017-Nov-15 12:30N 38°26' W 009°07'0 0.0
2017-Nov-15 12:00N 38°26' W 009°07'0 0.0
2017-Nov-15 11:30N 38°26' W 009°07'3 6.0
2017-Nov-15 11:00N 38°25' W 009°03'6 9.6
2017-Nov-15 10:22N 38°21' W 008°57'4 9.6
2017-Nov-15 09:54N 38°19' W 008°53'1 1.9
2017-Nov-15 09:30N 38°18' W 008°52'0 0.4
2017-Nov-15 09:00N 38°18' W 008°52'0 0.4
2017-Nov-15 08:30N 38°18' W 008°51'0 0.1
2017-Nov-15 08:00N 38°18' W 008°51'0 0.1
2017-Nov-15 07:30N 38°18' W 008°51'0 0.2
2017-Nov-15 06:59N 38°18' W 008°51'2 1.7
2017-Nov-15 05:56N 38°20' W 008°51'0 0.3
2017-Nov-15 05:30N 38°20' W 008°51'2 4.8
2017-Nov-15 05:01N 38°21' W 008°53'0 0.0
2017-Nov-15 04:26N 38°21' W 008°53'0 0.0
2017-Nov-15 04:00N 38°21' W 008°53'0 0.0
2017-Nov-15 03:30N 38°21' W 008°53'0 0.0
2017-Nov-15 03:01N 38°21' W 008°53'0 0.1
2017-Nov-15 02:31N 38°21' W 008°53'2 4.3
2017-Nov-15 01:58N 38°20' W 008°51'2 3.7
2017-Nov-15 01:30N 38°19' W 008°51'2 4.4
2017-Nov-15 01:00N 38°19' W 008°53'5 9.3
2017-Nov-15 00:30N 38°22' W 008°58'5 9.2
2017-Nov-15 00:01N 38°24' W 009°03'4 7.3
2017-Nov-14 23:31N 38°26' W 009°07'0 0.0
2017-Nov-14 23:01N 38°26' W 009°07'0 0.0
2017-Nov-14 12:35N 38°26' W 009°07'0 0.0
2017-Nov-14 12:30N 38°26' W 009°07'0 0.1
2017-Nov-14 12:00N 38°26' W 009°07'0 0.0
2017-Nov-14 11:30N 38°26' W 009°07'3 5.6
2017-Nov-14 11:00N 38°26' W 009°03'5 9.4
2017-Nov-14 10:27N 38°24' W 008°57'4 8.1
2017-Nov-14 09:58N 38°22' W 008°52'0 0.5
2017-Nov-14 09:30N 38°23' W 008°52'0 0.4
2017-Nov-14 09:00N 38°23' W 008°52'0 0.2
2017-Nov-14 08:30N 38°23' W 008°52'0 0.1
2017-Nov-14 07:47N 38°23' W 008°52'0 0.4
2017-Nov-14 07:30N 38°23' W 008°52'3 4.3
2017-Nov-14 06:47N 38°20' W 008°50'2 6.5
2017-Nov-14 06:30N 38°22' W 008°51'1 1.2
2017-Nov-14 05:55N 38°22' W 008°52'0 0.3
2017-Nov-14 05:30N 38°22' W 008°52'1 2.3
2017-Nov-14 05:00N 38°21' W 008°53'0 0.1
2017-Nov-14 04:30N 38°21' W 008°53'0 0.1
2017-Nov-14 04:00N 38°21' W 008°53'0 0.1
2017-Nov-14 03:30N 38°21' W 008°53'0 0.1
2017-Nov-14 03:00N 38°21' W 008°53'0 0.1
2017-Nov-14 02:30N 38°21' W 008°53'0 0.1
2017-Nov-14 02:00N 38°22' W 008°53'0 0.2
2017-Nov-14 01:30N 38°22' W 008°53'0 0.0
2017-Nov-14 01:00N 38°22' W 008°53'0 0.4
2017-Nov-14 00:30N 38°22' W 008°53'4 6.5
2017-Nov-13 23:51N 38°18' W 008°50'5 7.1
2017-Nov-13 23:05N 38°21' W 008°56'1 9.2
2017-Nov-13 22:59N 38°21' W 008°57'4 9.0
2017-Nov-13 22:30N 38°24' W 009°02'5 9.3
2017-Nov-13 22:00N 38°26' W 009°06'1 0.1
2017-Nov-13 02:00N 38°25' W 009°05'1 3.0
2017-Nov-13 01:30N 38°26' W 009°07'0 0.0
2017-Nov-13 01:00N 38°26' W 009°07'0 0.0
2017-Nov-13 00:30N 38°26' W 009°07'0 0.0
2017-Nov-13 00:00N 38°26' W 009°07'0 0.0
2017-Nov-12 23:30N 38°26' W 009°07'0 0.0
2017-Nov-12 23:00N 38°26' W 009°07'0 0.0
2017-Nov-12 22:30N 38°26' W 009°07'0 0.0
2017-Nov-12 22:00N 38°26' W 009°07'0 0.0
2017-Nov-11 17:29N 38°26' W 009°07'0 0.0
2017-Nov-11 15:43N 38°26' W 009°07'0 0.0
2017-Nov-11 12:08N 38°26' W 009°07'0 0.0
2017-Nov-11 12:00N 38°26' W 009°07'0 0.0
2017-Nov-11 11:30N 38°26' W 009°07'0 0.0
2017-Nov-11 11:00N 38°26' W 009°07'0 0.2
2017-Nov-11 10:30N 38°26' W 009°07'0 0.0
2017-Nov-10 00:00N 38°26' W 009°07'0 0.3
2017-Nov-09 23:31N 38°26' W 009°07'0 0.0
2017-Nov-09 23:00N 38°26' W 009°07'0 0.0
2017-Nov-09 22:30N 38°26' W 009°07'  

Dump ship's entire track history